createdAt,value
2022-10-02T00:02:37.393Z,0.93
2022-10-02T00:05:13.795Z,0.70
2022-10-02T00:07:42.990Z,0.70
2022-10-02T00:10:17.087Z,0.60
2022-10-02T00:12:46.109Z,0.50
2022-10-02T00:15:24.777Z,0.60
2022-10-02T00:17:55.056Z,0.50
2022-10-02T00:20:30.994Z,0.50
2022-10-02T00:23:03.237Z,0.80
2022-10-02T00:25:40.375Z,0.87
2022-10-02T00:28:32.841Z,0.93
2022-10-02T00:31:18.542Z,0.87
2022-10-02T00:33:51.169Z,0.80
2022-10-02T00:36:54.306Z,0.50
2022-10-02T00:39:47.230Z,0.87
2022-10-02T00:42:46.051Z,0.60
2022-10-02T00:45:24.693Z,0.70
2022-10-02T00:48:00.225Z,0.70
2022-10-02T00:50:44.810Z,0.60
2022-10-02T00:53:14.239Z,0.80
2022-10-02T00:55:58.454Z,0.50
2022-10-02T00:59:01.570Z,0.63
2022-10-02T01:01:45.444Z,0.60
2022-10-02T01:04:29.018Z,0.47
2022-10-02T01:06:56.107Z,0.60
2022-10-02T01:09:24.405Z,0.93
2022-10-02T01:11:51.930Z,0.50
2022-10-02T01:14:18.802Z,0.60
2022-10-02T01:16:46.205Z,0.70
2022-10-02T01:19:29.086Z,0.60
2022-10-02T01:22:06.628Z,0.60
2022-10-02T01:24:43.444Z,0.63
2022-10-02T01:27:10.549Z,0.53
2022-10-02T01:29:37.346Z,0.50
2022-10-02T01:32:04.695Z,0.70
2022-10-02T01:34:31.618Z,0.40
2022-10-02T01:36:58.557Z,0.70
2022-10-02T01:39:26.536Z,0.50
2022-10-02T01:41:55.549Z,0.70
2022-10-02T01:44:23.941Z,1.00
2022-10-02T01:47:09.607Z,0.53
2022-10-02T01:49:41.928Z,0.90
2022-10-02T01:52:41.854Z,0.50
2022-10-02T01:55:43.713Z,0.50
2022-10-02T01:58:13.063Z,0.80
2022-10-02T02:01:15.093Z,0.90
2022-10-02T02:03:44.395Z,0.67
2022-10-02T02:06:28.191Z,0.67
2022-10-02T02:09:02.144Z,0.60
2022-10-02T02:11:30.105Z,1.10
2022-10-02T02:14:05.837Z,0.90
2022-10-02T02:16:41.014Z,0.50
2022-10-02T02:19:24.457Z,0.90
2022-10-02T02:22:00.174Z,0.40
2022-10-02T02:24:34.384Z,0.50
2022-10-02T02:27:04.513Z,0.60
2022-10-02T02:29:36.402Z,0.90
2022-10-02T02:32:08.571Z,0.30
2022-10-02T02:34:42.941Z,0.67
2022-10-02T02:37:16.481Z,0.77
2022-10-02T02:39:52.401Z,0.60
2022-10-02T02:42:26.351Z,0.70
2022-10-02T02:45:09.758Z,0.50
2022-10-02T02:47:40.722Z,0.70
2022-10-02T02:50:19.626Z,0.50
2022-10-02T02:53:07.723Z,1.07
2022-10-02T02:55:45.262Z,0.50
2022-10-02T02:58:16.570Z,0.70
2022-10-02T03:00:44.077Z,0.60
2022-10-02T03:03:10.797Z,0.50
2022-10-02T03:05:42.674Z,0.80
2022-10-02T03:08:25.882Z,0.57
2022-10-02T03:11:15.694Z,0.63
2022-10-02T03:14:14.451Z,1.10
2022-10-02T03:16:53.410Z,0.73
2022-10-02T03:19:29.219Z,0.90
2022-10-02T03:22:15.210Z,0.67
2022-10-02T03:24:49.809Z,0.77
2022-10-02T03:27:30.279Z,0.63
2022-10-02T03:30:07.546Z,0.60
2022-10-02T03:32:36.377Z,0.70
2022-10-02T03:35:06.062Z,0.80
2022-10-02T03:37:32.986Z,0.80
2022-10-02T03:40:01.838Z,0.83
2022-10-02T03:42:32.439Z,0.77
2022-10-02T03:44:59.160Z,0.60
2022-10-02T03:47:26.027Z,0.93
2022-10-02T03:49:52.715Z,0.80
2022-10-02T03:52:21.982Z,0.80
2022-10-02T03:54:54.910Z,0.87
2022-10-02T03:57:24.965Z,0.50
2022-10-02T04:00:12.843Z,0.80
2022-10-02T04:02:45.077Z,0.53
2022-10-02T04:05:23.982Z,0.53
2022-10-02T04:08:02.510Z,1.03
2022-10-02T04:10:37.256Z,0.90
2022-10-02T04:13:39.010Z,1.60
2022-10-02T04:16:20.562Z,0.70
2022-10-02T04:18:57.287Z,1.00
2022-10-02T04:21:34.373Z,1.90
2022-10-02T04:24:33.117Z,0.50
2022-10-02T04:27:20.864Z,1.00
2022-10-02T04:30:03.114Z,1.40
2022-10-02T04:32:36.335Z,0.77
2022-10-02T04:35:13.749Z,1.00
2022-10-02T04:38:07.241Z,0.70
2022-10-02T04:40:37.182Z,0.70
2022-10-02T04:43:14.460Z,0.90
2022-10-02T04:46:08.116Z,0.80
2022-10-02T04:48:53.234Z,0.70
2022-10-02T04:51:40.529Z,1.43
2022-10-02T04:54:16.334Z,0.80
2022-10-02T04:56:54.898Z,0.90
2022-10-02T04:59:46.025Z,0.80
2022-10-02T05:02:30.939Z,0.70
2022-10-02T05:05:06.701Z,0.70
2022-10-02T05:07:51.200Z,0.73
2022-10-02T05:10:45.199Z,0.70
2022-10-02T05:13:46.874Z,0.80
2022-10-02T05:16:32.652Z,0.80
2022-10-02T05:19:38.198Z,0.93
2022-10-02T05:22:31.130Z,0.87
2022-10-02T05:25:44.237Z,0.60
2022-10-02T05:28:38.390Z,0.83
2022-10-02T05:31:14.007Z,0.97
2022-10-02T05:34:40.479Z,0.90
2022-10-02T05:37:40.961Z,0.70
2022-10-02T05:40:40.253Z,0.70
2022-10-02T05:43:22.182Z,0.60
2022-10-02T05:46:11.702Z,0.90
2022-10-02T05:48:58.978Z,0.80
2022-10-02T05:51:41.837Z,0.70
2022-10-02T05:54:41.647Z,0.70
2022-10-02T05:57:31.870Z,1.23
2022-10-02T06:00:01.789Z,0.60
2022-10-02T06:02:50.356Z,0.70
2022-10-02T06:05:23.853Z,1.00
2022-10-02T06:07:56.776Z,0.67
2022-10-02T06:10:31.068Z,1.00
2022-10-02T06:13:08.637Z,0.90
2022-10-02T06:16:10.615Z,0.93
2022-10-02T06:18:42.490Z,0.90
2022-10-02T06:21:43.582Z,0.93
2022-10-02T06:24:22.112Z,1.10
2022-10-02T06:26:57.485Z,0.80
2022-10-02T06:29:32.645Z,0.90
2022-10-02T06:32:14.586Z,1.03
2022-10-02T06:34:44.660Z,0.83
2022-10-02T06:37:44.250Z,0.83
2022-10-02T06:40:35.461Z,1.00
2022-10-02T06:43:34.312Z,0.90
2022-10-02T06:46:11.855Z,1.30
2022-10-02T06:49:08.579Z,1.20
2022-10-02T06:52:15.423Z,1.17
2022-10-02T06:55:21.527Z,0.97
2022-10-02T06:58:08.182Z,0.87
2022-10-02T07:00:47.527Z,1.17
2022-10-02T07:03:52.627Z,1.10
2022-10-02T07:06:39.536Z,1.10
2022-10-02T07:09:24.472Z,1.40
2022-10-02T07:12:12.458Z,0.95
2022-10-02T07:14:55.732Z,1.33
2022-10-02T07:18:19.675Z,1.10
2022-10-02T07:21:07.823Z,1.27
2022-10-02T07:24:07.407Z,1.30
2022-10-02T07:26:54.096Z,1.50
2022-10-02T07:29:39.306Z,1.07
2022-10-02T07:32:14.909Z,1.20
2022-10-02T07:35:08.317Z,1.20
2022-10-02T07:37:59.674Z,1.13
2022-10-02T07:40:38.358Z,1.70
2022-10-02T07:43:35.732Z,1.13
2022-10-02T07:46:20.983Z,1.33
2022-10-02T07:49:22.081Z,1.20
2022-10-02T07:52:04.197Z,1.20
2022-10-02T07:55:09.238Z,0.83
2022-10-02T07:57:38.558Z,1.23
2022-10-02T08:00:15.072Z,1.30
2022-10-02T08:03:01.215Z,1.70
2022-10-02T08:05:33.813Z,1.40
2022-10-02T08:08:09.999Z,1.20
2022-10-02T08:10:40.607Z,1.00
2022-10-02T08:13:07.453Z,1.07
2022-10-02T08:15:38.628Z,1.90
2022-10-02T08:18:33.258Z,1.27
2022-10-02T08:21:02.186Z,1.27
2022-10-02T08:23:37.652Z,1.20
2022-10-02T08:26:33.054Z,1.00
2022-10-02T08:29:20.181Z,1.10
2022-10-02T08:31:47.286Z,1.20
2022-10-02T08:34:18.358Z,1.27
2022-10-02T08:36:48.162Z,1.70
2022-10-02T08:39:44.177Z,1.50
2022-10-02T08:42:20.332Z,1.10
2022-10-02T08:45:24.644Z,1.23
2022-10-02T08:48:15.716Z,1.77
2022-10-02T08:51:30.239Z,1.30
2022-10-02T08:54:09.166Z,0.98
2022-10-02T08:56:51.047Z,1.20
2022-10-02T09:00:00.142Z,1.10
2022-10-02T09:02:29.644Z,0.90
2022-10-02T09:05:09.630Z,0.90
2022-10-02T09:07:58.052Z,1.17
2022-10-02T09:11:09.184Z,1.70
2022-10-02T09:13:57.470Z,1.08
2022-10-02T09:16:38.971Z,1.38
2022-10-02T09:19:30.887Z,1.50
2022-10-02T09:22:26.467Z,0.90
2022-10-02T09:25:09.087Z,1.17
2022-10-02T09:27:54.958Z,0.82
2022-10-02T09:30:48.686Z,1.30
2022-10-02T09:33:21.184Z,0.90
2022-10-02T09:36:06.814Z,1.02
2022-10-02T09:39:02.867Z,1.38
2022-10-02T09:41:50.147Z,1.17
2022-10-02T09:44:37.215Z,0.90
2022-10-02T09:47:03.858Z,1.00
2022-10-02T09:49:52.162Z,1.33
2022-10-02T09:52:56.502Z,0.98
2022-10-02T09:55:58.003Z,0.98
2022-10-02T09:58:43.851Z,0.90
2022-10-02T10:01:24.483Z,1.30
2022-10-02T10:04:03.674Z,0.75
2022-10-02T10:07:19.019Z,0.80
2022-10-02T10:10:10.882Z,0.70
2022-10-02T10:13:16.646Z,0.82
2022-10-02T10:16:06.165Z,0.70
2022-10-02T10:19:03.530Z,0.70
2022-10-02T10:21:33.329Z,0.70
2022-10-02T10:24:03.291Z,0.80
2022-10-02T10:26:56.067Z,0.70
2022-10-02T10:29:54.482Z,0.63
2022-10-02T10:32:39.871Z,0.60
2022-10-02T10:35:41.774Z,0.73
2022-10-02T10:38:40.933Z,0.65
2022-10-02T10:42:06.450Z,1.17
2022-10-02T10:44:59.739Z,0.60
2022-10-02T10:48:12.436Z,0.50
2022-10-02T10:50:49.127Z,0.68
2022-10-02T10:54:13.044Z,0.52
2022-10-02T10:56:57.598Z,0.80
2022-10-02T10:59:42.559Z,0.65
2022-10-02T11:02:14.003Z,0.50
2022-10-02T11:05:08.806Z,0.60
2022-10-02T11:08:09.968Z,0.50
2022-10-02T11:11:07.955Z,0.40
2022-10-02T11:14:07.357Z,0.30
2022-10-02T11:17:10.869Z,0.40
2022-10-02T11:19:43.203Z,0.47
2022-10-02T11:22:37.980Z,0.40
2022-10-02T11:25:26.352Z,0.40
2022-10-02T11:27:59.383Z,0.32
2022-10-02T11:30:49.554Z,0.32
2022-10-02T11:34:00.875Z,0.40
2022-10-02T11:37:01.345Z,0.32
2022-10-02T11:39:47.130Z,0.90
2022-10-02T11:42:58.220Z,0.22
2022-10-02T11:45:33.004Z,0.40
2022-10-02T11:48:26.826Z,0.43
2022-10-02T11:51:10.379Z,0.30
2022-10-02T11:53:52.666Z,0.30
2022-10-02T11:56:38.342Z,0.17
2022-10-02T11:59:33.634Z,0.30
2022-10-02T12:02:05.619Z,0.20
2022-10-02T12:05:15.782Z,0.20
2022-10-02T12:07:58.414Z,0.20
2022-10-02T12:10:30.854Z,0.20
2022-10-02T12:13:29.005Z,0.17
2022-10-02T12:16:17.475Z,0.30
2022-10-02T12:19:04.097Z,0.10
2022-10-02T12:22:41.551Z,0.15
2022-10-02T12:25:45.598Z,0.15
2022-10-02T12:28:21.527Z,0.10
2022-10-02T12:31:03.098Z,0.22
2022-10-02T12:33:35.974Z,0.20
2022-10-02T12:36:24.378Z,0.30
2022-10-02T12:39:18.803Z,0.10
2022-10-02T12:42:30.971Z,0.17
2022-10-02T12:45:11.590Z,0.30
2022-10-02T12:47:57.285Z,0.10
2022-10-02T12:50:43.573Z,0.40
2022-10-02T12:53:36.665Z,0.10
2022-10-02T12:56:24.938Z,0.20
2022-10-02T12:59:03.382Z,0.40
2022-10-02T13:01:36.327Z,0.22
2022-10-02T13:04:18.118Z,0.28
2022-10-02T13:07:06.146Z,0.20
2022-10-02T13:09:59.263Z,0.10
2022-10-02T13:12:52.090Z,0.40
2022-10-02T13:15:54.874Z,0.10
2022-10-02T13:18:25.433Z,0.20
2022-10-02T13:21:06.149Z,0.10
2022-10-02T13:23:46.662Z,0.15
2022-10-02T13:26:52.021Z,0.30
2022-10-02T13:29:44.982Z,0.08
2022-10-02T13:32:33.033Z,0.10
2022-10-02T13:35:06.295Z,0.10
2022-10-02T13:37:57.506Z,0.25
2022-10-02T13:40:31.207Z,0.32
2022-10-02T13:43:16.253Z,0.10
2022-10-02T13:46:08.487Z,0.15
2022-10-02T13:48:56.461Z,0.15
2022-10-02T13:51:39.844Z,0.10
2022-10-02T13:54:21.682Z,0.13
2022-10-02T13:57:05.852Z,0.20
2022-10-02T14:00:02.746Z,0.10
2022-10-02T14:02:58.250Z,0.20
2022-10-02T14:05:44.035Z,0.20
2022-10-02T14:08:22.951Z,0.20
2022-10-02T14:11:01.276Z,0.20
2022-10-02T14:13:52.829Z,0.17
2022-10-02T14:16:41.221Z,0.10
2022-10-02T14:19:20.175Z,0.20
2022-10-02T14:21:58.246Z,0.20
2022-10-02T14:24:57.399Z,0.30
2022-10-02T14:27:55.091Z,0.32
2022-10-02T14:30:27.036Z,0.45
2022-10-02T14:33:06.887Z,0.30
2022-10-02T14:36:07.714Z,0.40
2022-10-02T14:38:46.514Z,0.50
2022-10-02T14:41:37.793Z,0.47
2022-10-02T14:44:16.678Z,0.30
2022-10-02T14:46:59.399Z,0.50
2022-10-02T14:50:14.838Z,0.40
2022-10-02T14:52:58.273Z,0.50
2022-10-02T14:55:37.002Z,0.60
2022-10-02T14:58:34.069Z,0.57
2022-10-02T15:01:23.518Z,0.65
2022-10-02T15:04:03.117Z,0.70
2022-10-02T15:07:14.486Z,0.60
2022-10-02T15:10:07.634Z,1.00
2022-10-02T15:12:43.848Z,0.70
2022-10-02T15:15:39.417Z,0.90
2022-10-02T15:18:24.014Z,1.10
2022-10-02T15:21:01.805Z,0.80
2022-10-02T15:23:48.311Z,0.90
2022-10-02T15:26:44.118Z,0.83
2022-10-02T15:29:13.980Z,0.97
2022-10-02T15:32:02.378Z,0.93
2022-10-02T15:34:48.385Z,1.30
2022-10-02T15:37:52.558Z,1.20
2022-10-02T15:40:33.575Z,1.30
2022-10-02T15:43:31.677Z,1.20
2022-10-02T15:46:16.998Z,0.80
2022-10-02T15:48:58.366Z,0.90
2022-10-02T15:51:57.998Z,1.10
2022-10-02T15:54:42.623Z,1.00
2022-10-02T15:57:34.346Z,6.07
2022-10-02T16:00:14.190Z,4.00
2022-10-02T16:03:05.179Z,3.43
2022-10-02T16:05:55.624Z,6.07
2022-10-02T16:08:28.890Z,4.73
2022-10-02T16:11:21.689Z,3.67
2022-10-02T16:14:07.718Z,2.30
2022-10-02T16:17:07.436Z,2.20
2022-10-02T16:20:18.303Z,2.90
2022-10-02T16:23:24.676Z,8.13
2022-10-02T16:26:15.478Z,6.40
2022-10-02T16:29:09.969Z,4.27
2022-10-02T16:31:57.840Z,4.15
2022-10-02T16:34:39.129Z,4.07
2022-10-02T16:37:35.176Z,5.40
2022-10-02T16:40:20.753Z,5.20
2022-10-02T16:42:53.280Z,2.13
2022-10-02T16:45:59.445Z,2.43
2022-10-02T16:48:37.678Z,1.95
2022-10-02T16:51:26.451Z,1.40
2022-10-02T16:54:22.674Z,1.20
2022-10-02T16:57:04.819Z,1.40
2022-10-02T16:59:43.027Z,1.50
2022-10-02T17:02:31.340Z,3.53
2022-10-02T17:05:23.555Z,1.50
2022-10-02T17:07:59.874Z,2.20
2022-10-02T17:10:29.534Z,4.03
2022-10-02T17:12:59.034Z,7.73
2022-10-02T17:15:34.366Z,4.60
2022-10-02T17:18:21.322Z,4.30
2022-10-02T17:20:55.389Z,3.80
2022-10-02T17:23:33.978Z,3.80
2022-10-02T17:26:33.341Z,3.37
2022-10-02T17:29:07.534Z,8.47
2022-10-02T17:31:43.909Z,25.73
2022-10-02T17:34:29.950Z,5.27
2022-10-02T17:37:08.818Z,3.03
2022-10-02T17:40:00.129Z,2.60
2022-10-02T17:42:44.925Z,1.95
2022-10-02T17:45:45.944Z,1.80
2022-10-02T17:48:26.676Z,1.90
2022-10-02T17:51:31.317Z,1.70
2022-10-02T17:54:37.392Z,1.80
2022-10-02T17:57:19.015Z,1.60
2022-10-02T18:00:10.194Z,1.60
2022-10-02T18:02:48.823Z,1.60
2022-10-02T18:05:23.622Z,1.50
2022-10-02T18:08:06.049Z,2.00
2022-10-02T18:10:41.722Z,1.27
2022-10-02T18:13:11.345Z,6.80
2022-10-02T18:15:53.433Z,11.13
2022-10-02T18:18:39.252Z,7.07
2022-10-02T18:21:29.903Z,4.37
2022-10-02T18:24:14.998Z,2.63
2022-10-02T18:27:22.771Z,1.03
2022-10-02T18:30:11.403Z,1.57
2022-10-02T18:33:05.267Z,2.60
2022-10-02T18:35:45.461Z,2.40
2022-10-02T18:38:32.462Z,3.47
2022-10-02T18:41:05.403Z,2.20
2022-10-02T18:43:50.425Z,2.50
2022-10-02T18:46:26.347Z,1.50
2022-10-02T18:48:59.142Z,0.97
2022-10-02T18:51:44.253Z,0.50
2022-10-02T18:54:27.838Z,0.50
2022-10-02T18:56:59.233Z,0.40
2022-10-02T18:59:47.855Z,0.40
2022-10-02T19:02:36.418Z,0.40
2022-10-02T19:05:19.613Z,0.40
2022-10-02T19:08:14.310Z,0.23
2022-10-02T19:10:45.327Z,0.30
2022-10-02T19:13:29.383Z,0.40
2022-10-02T19:16:01.277Z,1.27
2022-10-02T19:18:29.649Z,0.83
2022-10-02T19:20:56.304Z,0.60
2022-10-02T19:24:01.848Z,0.40
2022-10-02T19:26:33.276Z,0.43
2022-10-02T19:29:19.339Z,0.20
2022-10-02T19:31:46.801Z,0.43
2022-10-02T19:34:20.755Z,0.37
2022-10-02T19:36:52.082Z,0.40
2022-10-02T19:39:33.210Z,0.30
2022-10-02T19:42:03.553Z,0.30
2022-10-02T19:44:35.099Z,0.20
2022-10-02T19:47:13.154Z,0.20
2022-10-02T19:49:41.607Z,0.30
2022-10-02T19:52:40.670Z,0.30
2022-10-02T19:55:22.881Z,0.30
2022-10-02T19:57:53.122Z,0.40
2022-10-02T20:00:20.334Z,0.27
2022-10-02T20:02:56.511Z,0.40
2022-10-02T20:05:30.882Z,0.40
2022-10-02T20:08:05.851Z,0.50
2022-10-02T20:10:41.174Z,0.70
2022-10-02T20:13:27.980Z,2.00
2022-10-02T20:16:33.761Z,2.30
2022-10-02T20:19:02.302Z,1.00
2022-10-02T20:21:38.380Z,0.80
2022-10-02T20:24:19.886Z,0.60
2022-10-02T20:26:48.371Z,0.40
2022-10-02T20:29:22.671Z,0.40
2022-10-02T20:31:58.307Z,0.43
2022-10-02T20:34:33.791Z,0.30
2022-10-02T20:37:17.743Z,0.60
2022-10-02T20:39:51.498Z,0.50
2022-10-02T20:42:25.338Z,0.47
2022-10-02T20:44:52.122Z,0.70
2022-10-02T20:47:36.931Z,0.50
2022-10-02T20:50:42.819Z,0.50
2022-10-02T20:53:18.713Z,0.40
2022-10-02T20:55:59.702Z,0.60
2022-10-02T20:58:36.188Z,0.47
2022-10-02T21:01:08.766Z,0.50
2022-10-02T21:04:00.611Z,0.40
2022-10-02T21:06:40.543Z,0.47
2022-10-02T21:09:36.582Z,0.47
2022-10-02T21:12:22.176Z,0.80
2022-10-02T21:15:25.838Z,0.50
2022-10-02T21:18:07.686Z,0.50
2022-10-02T21:20:51.649Z,0.47
2022-10-02T21:23:44.906Z,0.90
2022-10-02T21:26:33.411Z,1.43
2022-10-02T21:29:27.580Z,1.37
2022-10-02T21:32:13.896Z,0.57
2022-10-02T21:34:49.685Z,0.50
2022-10-02T21:37:44.436Z,0.50
2022-10-02T21:40:35.686Z,0.40
2022-10-02T21:43:30.296Z,0.53
2022-10-02T21:46:36.068Z,0.50
2022-10-02T21:49:37.817Z,0.50
2022-10-02T21:53:07.994Z,0.60
2022-10-02T21:55:51.060Z,0.53
2022-10-02T21:58:40.922Z,0.50
2022-10-02T22:01:42.633Z,0.43
2022-10-02T22:04:35.176Z,0.50
2022-10-02T22:07:02.876Z,1.20
2022-10-02T22:10:02.749Z,0.40
2022-10-02T22:12:41.876Z,0.40
2022-10-02T22:15:14.499Z,0.60
2022-10-02T22:17:51.991Z,0.67
2022-10-02T22:20:24.354Z,0.67
2022-10-02T22:23:12.458Z,0.50
2022-10-02T22:26:09.784Z,0.43
2022-10-02T22:28:50.174Z,0.57
2022-10-02T22:31:22.768Z,0.50
2022-10-02T22:33:55.422Z,0.50
2022-10-02T22:36:40.628Z,0.50
2022-10-02T22:39:30.733Z,0.40
2022-10-02T22:42:03.090Z,0.50
2022-10-02T22:45:19.441Z,0.40
2022-10-02T22:47:56.618Z,0.60
2022-10-02T22:50:36.196Z,0.50
2022-10-02T22:53:12.596Z,0.37
2022-10-02T22:55:48.850Z,0.50
2022-10-02T22:58:42.718Z,0.50
2022-10-02T23:01:22.356Z,0.40
2022-10-02T23:04:02.878Z,0.50
2022-10-02T23:06:48.531Z,0.40
2022-10-02T23:09:24.906Z,0.43
2022-10-02T23:12:13.702Z,0.47
2022-10-02T23:15:22.729Z,0.40
2022-10-02T23:18:12.410Z,0.40
2022-10-02T23:20:45.404Z,0.53
2022-10-02T23:23:25.976Z,0.50
2022-10-02T23:26:06.743Z,0.50
2022-10-02T23:28:51.777Z,0.70
2022-10-02T23:31:24.735Z,0.70
2022-10-02T23:34:19.293Z,0.40
2022-10-02T23:37:00.367Z,0.40
2022-10-02T23:39:38.958Z,0.50
2022-10-02T23:42:12.003Z,0.50
2022-10-02T23:44:45.354Z,0.47
2022-10-02T23:47:39.244Z,0.40
2022-10-02T23:50:33.878Z,0.40
2022-10-02T23:53:08.577Z,0.50
2022-10-02T23:55:41.354Z,0.60
2022-10-02T23:58:31.195Z,0.60
